Time;durP1;ratioP1;P1;durP2;ratioP2;P2;SDS_P1;SDS_P2;PMS_P1;PMS_P2;Temp;Humidity;BMP_temperature;BMP_pressure;BME280_temperature;BME280_humidity;BME280_pressure;Samples;Min_cycle;Max_cycle;Signal;HPM_P1;HPM_P2
2022/08/12 00:45:02;;;;;;;4.57;4.18;;;;;;;21.76;56.30;94947.91;5096072;28;20217;-71
2022/08/12 00:47:31;;;;;;;4.53;4.22;;;;;;;21.73;56.27;94948.75;5095942;28;20200;-71
2022/08/12 00:49:59;;;;;;;4.55;4.22;;;;;;;21.73;56.28;94948.75;5096780;28;20191;-71
2022/08/12 00:52:27;;;;;;;4.45;4.07;;;;;;;21.73;56.09;94945.97;5096881;28;20193;-72
2022/08/12 00:54:59;;;;;;;4.57;4.28;;;;;;;21.72;56.46;94950.00;5096768;28;20597;-71
2022/08/12 00:57:28;;;;;;;4.85;4.50;;;;;;;21.72;56.45;94946.41;5096598;28;20193;-71
2022/08/12 01:00:02;;;;;;;4.68;4.28;;;;;;;21.70;56.62;94954.44;5096564;28;20249;-71
2022/08/12 01:02:32;;;;;;;4.65;4.35;;;;;;;21.68;56.46;94960.50;5095432;28;20200;-71
2022/08/12 01:13:27;;;;;;;4.95;4.55;;;;;;;21.50;57.14;94966.41;5095265;28;20185;-71
2022/08/12 01:15:59;;;;;;;4.85;4.45;;;;;;;21.47;56.60;94960.84;5096141;28;20208;-71
2022/08/12 01:18:28;;;;;;;5.25;4.85;;;;;;;21.45;57.08;94978.09;5096147;28;20551;-71
2022/08/12 01:21:04;;;;;;;5.03;4.65;;;;;;;21.43;57.07;94974.94;5096088;28;20187;-71
2022/08/12 01:23:53;;;;;;;5.28;4.82;;;;;;;21.41;56.88;94973.78;5096151;28;20242;-71
2022/08/12 01:26:23;;;;;;;4.88;4.47;;;;;;;21.38;57.17;94975.41;5078176;28;20269;-71
2022/08/12 01:28:56;;;;;;;4.30;4.00;;;;;;;21.35;56.94;94979.88;5095992;28;20239;-71
2022/08/12 01:31:25;;;;;;;4.85;4.45;;;;;;;21.38;57.23;94967.00;5095176;28;20204;-71
2022/08/12 01:34:01;;;;;;;4.75;4.45;;;;;;;21.36;57.10;94966.63;5095946;28;20201;-71
2022/08/12 01:36:36;;;;;;;5.32;4.88;;;;;;;21.37;56.94;94971.03;5095332;28;20231;-71
2022/08/12 01:39:05;;;;;;;4.72;4.35;;;;;;;21.36;56.75;94981.44;5094775;28;20214;-71
2022/08/12 01:41:36;;;;;;;4.90;4.50;;;;;;;21.35;57.31;94979.06;5095384;28;20304;-71
2022/08/12 01:44:11;;;;;;;5.20;4.70;;;;;;;21.36;57.23;94975.84;5095634;28;20235;-71
2022/08/12 01:46:46;;;;;;;4.82;4.32;;;;;;;21.39;57.53;94974.22;5094924;28;20279;-71
2022/08/12 01:49:38;;;;;;;5.28;4.88;;;;;;;21.39;57.48;94965.78;5095505;28;20184;-71
2022/08/12 01:52:07;;;;;;;5.10;4.60;;;;;;;21.41;57.05;94966.16;5094789;28;20201;-71
2022/08/12 01:54:42;;;;;;;5.15;4.75;;;;;;;21.38;57.10;94964.97;5095688;28;20188;-71
2022/08/12 01:57:17;;;;;;;4.70;4.40;;;;;;;21.40;56.65;94970.19;5094839;28;20199;-71
2022/08/12 01:59:49;;;;;;;4.90;4.38;;;;;;;21.44;56.38;94962.50;5094622;28;20192;-71
2022/08/12 02:02:17;;;;;;;5.15;4.60;;;;;;;21.45;56.71;94955.66;5095285;28;20180;-71
2022/08/12 02:14:11;;;;;;;5.10;4.70;;;;;;;21.29;56.73;94955.50;5095153;28;20667;-71
2022/08/12 02:17:05;;;;;;;5.10;4.70;;;;;;;21.21;57.20;94954.81;5086176;28;20212;-71
2022/08/12 02:19:56;;;;;;;5.20;4.70;;;;;;;21.16;57.56;94958.09;5094990;28;20184;-71
2022/08/12 02:22:36;;;;;;;5.15;4.70;;;;;;;21.09;58.20;94959.00;5094897;28;20192;-71
2022/08/12 02:25:09;;;;;;;5.07;4.47;;;;;;;21.09;57.88;94956.19;5094480;28;20227;-71
2022/08/12 02:27:40;;;;;;;4.88;4.45;;;;;;;21.08;58.54;94959.44;5094307;28;20207;-71
2022/08/12 02:30:12;;;;;;;5.13;4.72;;;;;;;21.07;59.53;94955.03;5094912;28;20216;-71
2022/08/12 02:32:43;;;;;;;5.40;4.97;;;;;;;21.04;59.99;94953.09;5094867;28;20195;-71
2022/08/12 02:35:14;;;;;;;5.20;4.80;;;;;;;20.96;60.56;94957.22;5094697;28;20205;-71
2022/08/12 02:37:44;;;;;;;5.05;4.65;;;;;;;20.92;61.38;94949.66;5094794;28;20202;-71
2022/08/12 02:40:13;;;;;;;5.38;4.88;;;;;;;20.87;61.55;94952.13;5095066;28;20204;-70
2022/08/12 02:42:50;;;;;;;5.28;4.80;;;;;;;20.85;62.08;94948.97;5094719;28;20250;-71
2022/08/12 02:45:23;;;;;;;4.88;4.47;;;;;;;20.84;62.63;94956.56;5095139;28;20302;-71
2022/08/12 02:47:51;;;;;;;8.02;4.93;;;;;;;20.83;63.04;94954.19;5094746;28;20184;-71
2022/08/12 02:50:24;;;;;;;5.47;4.63;;;;;;;20.80;63.37;94947.41;5094381;28;20226;-71
2022/08/12 02:52:54;;;;;;;5.43;4.93;;;;;;;20.80;63.93;94949.41;5094128;28;20284;-71
2022/08/12 02:55:27;;;;;;;5.88;5.28;;;;;;;20.77;65.20;94948.28;5094332;28;20220;-71
2022/08/12 02:57:55;;;;;;;5.32;4.82;;;;;;;20.67;64.45;94946.41;5077394;28;20201;-71
2022/08/12 03:00:27;;;;;;;5.10;4.70;;;;;;;20.70;65.21;94950.34;5095017;28;20200;-71
2022/08/12 03:02:57;;;;;;;5.78;5.28;;;;;;;20.71;66.39;94944.34;5094700;28;20189;-71
2022/08/12 03:05:26;;;;;;;5.20;4.80;;;;;;;20.72;66.97;94957.13;5094927;28;20227;-71
2022/08/12 03:07:54;;;;;;;6.15;5.55;;;;;;;20.71;66.27;94949.94;5093930;28;20224;-72
2022/08/12 03:10:23;;;;;;;6.30;5.80;;;;;;;20.69;67.88;94955.16;5093749;28;20205;-72
2022/08/12 03:12:52;;;;;;;5.60;5.10;;;;;;;20.62;68.98;94970.06;5094510;28;20189;-71
2022/08/12 03:15:24;;;;;;;5.72;5.15;;;;;;;20.55;68.88;94964.59;5093976;28;20197;-71
2022/08/12 03:17:59;;;;;;;5.88;5.15;;;;;;;20.51;69.30;94965.81;5094708;28;20185;-71
2022/08/12 03:20:27;;;;;;;5.85;5.30;;;;;;;20.53;69.41;94961.41;5094761;28;20180;-71
2022/08/12 03:22:57;;;;;;;5.60;5.20;;;;;;;20.49;70.42;94962.63;5095073;28;20192;-71
2022/08/12 03:25:26;;;;;;;5.72;5.22;;;;;;;20.39;70.54;94959.53;5094615;28;20222;-71
2022/08/12 03:27:55;;;;;;;5.93;5.30;;;;;;;20.38;71.71;94957.16;5098168;28;20181;-71
2022/08/12 03:30:25;;;;;;;6.88;6.18;;;;;;;20.40;72.29;94960.31;5080416;28;20276;-70
2022/08/12 03:32:57;;;;;;;5.85;5.25;;;;;;;20.41;72.53;94962.72;5097664;28;20216;-70
2022/08/12 03:35:29;;;;;;;5.35;4.93;;;;;;;20.39;71.71;94964.34;5098220;28;20256;-70
2022/08/12 03:38:00;;;;;;;5.53;5.10;;;;;;;20.40;71.72;94966.72;5098306;28;20189;-70
2022/08/12 04:00:27;;;;;;;6.28;5.47;;;;;;;20.18;73.50;94982.19;5096979;28;20193;-71
2022/08/12 04:02:57;;;;;;;5.60;5.20;;;;;;;20.15;73.14;94978.25;5097733;28;20218;-71
2022/08/12 04:05:28;;;;;;;5.68;5.18;;;;;;;20.13;73.31;94972.25;5096783;28;20223;-71
2022/08/12 04:07:58;;;;;;;6.38;5.80;;;;;;;20.12;73.89;94978.28;5097299;28;20188;-72
2022/08/12 04:13:14;;;;;;;6.63;5.75;;;;;;;20.13;73.68;94982.66;5096644;28;20576;-72
2022/08/12 04:13:20;;;;;;;6.85;6.10;;;;;;;20.14;73.74;94981.44;5096310;28;20196;-71
2022/08/12 04:15:48;;;;;;;6.18;5.68;;;;;;;20.15;73.86;94977.41;5096137;28;20288;-72
2022/08/12 04:18:16;;;;;;;6.85;6.25;;;;;;;20.15;74.66;94974.63;5097428;28;20181;-72
2022/08/12 04:20:48;;;;;;;6.28;5.68;;;;;;;20.13;74.67;94982.66;5097332;28;20200;-71
2022/08/12 04:23:17;;;;;;;6.57;6.03;;;;;;;20.13;75.31;94982.66;5096604;28;20196;-72
2022/08/12 04:25:45;;;;;;;6.45;5.95;;;;;;;20.10;75.12;94977.88;5096356;28;20520;-72
2022/08/12 04:28:13;;;;;;;6.65;5.97;;;;;;;20.11;75.31;94977.47;5095765;28;20223;-72
2022/08/12 04:30:42;;;;;;;6.88;6.30;;;;;;;20.09;76.36;94974.28;5097433;28;20184;-72
2022/08/12 04:33:11;;;;;;;6.68;6.10;;;;;;;20.10;75.82;94972.28;5096488;28;20250;-72
2022/08/12 04:35:39;;;;;;;6.88;6.28;;;;;;;20.07;75.78;94968.31;5097018;28;20193;-72
2022/08/12 04:38:09;;;;;;;7.03;6.15;;;;;;;20.06;75.75;94975.13;5095445;28;20196;-72
2022/08/12 04:40:37;;;;;;;6.88;6.28;;;;;;;19.99;75.82;94980.00;5097146;28;20188;-72
2022/08/12 04:43:09;;;;;;;6.47;5.97;;;;;;;19.94;75.67;94972.88;5096262;28;20242;-72
2022/08/12 04:45:38;;;;;;;6.60;6.00;;;;;;;19.97;74.07;94974.81;5096726;28;20262;-72
2022/08/12 04:48:07;;;;;;;6.65;6.05;;;;;;;20.00;74.02;94985.19;5096209;28;20203;-72
2022/08/12 04:50:35;;;;;;;6.45;5.82;;;;;;;19.99;74.96;94986.41;5096272;28;20191;-72
2022/08/12 04:53:04;;;;;;;6.35;5.78;;;;;;;19.92;74.73;94987.25;5095857;28;20192;-72
2022/08/12 04:55:34;;;;;;;7.07;6.47;;;;;;;19.96;74.16;94979.63;5096742;28;20192;-72
2022/08/12 04:58:02;;;;;;;6.68;6.07;;;;;;;19.98;75.30;94975.63;5096399;28;20257;-72
2022/08/12 05:00:31;;;;;;;8.10;6.47;;;;;;;20.00;75.71;94976.00;5095638;28;20196;-72
2022/08/12 05:02:59;;;;;;;6.32;5.82;;;;;;;19.99;76.17;94980.00;5096303;28;20197;-72
2022/08/12 05:05:28;;;;;;;6.90;6.20;;;;;;;20.01;75.84;94975.59;5096654;28;20205;-72
2022/08/12 05:07:56;;;;;;;7.72;6.90;;;;;;;20.01;75.71;94980.38;5095552;28;20188;-73
2022/08/12 05:10:25;;;;;;;8.82;7.13;;;;;;;20.03;75.58;94981.56;5097128;28;20191;-74
2022/08/12 05:12:56;;;;;;;7.80;7.00;;;;;;;20.04;76.03;94985.13;5096852;28;20204;-73
2022/08/12 05:15:24;;;;;;;7.32;6.72;;;;;;;20.01;76.58;94977.56;5097775;28;20185;-71
2022/08/12 05:17:51;;;;;;;8.40;7.55;;;;;;;20.00;76.28;94973.97;5096162;28;20220;-71
2022/08/12 05:20:21;;;;;;;7.45;6.75;;;;;;;20.01;76.44;94984.00;5097087;28;20204;-71
2022/08/12 05:22:49;;;;;;;6.97;6.30;;;;;;;20.03;75.71;94978.75;5096547;28;20612;-71
2022/08/12 05:25:22;;;;;;;6.80;6.30;;;;;;;19.99;75.93;94978.00;5096177;28;20204;-70
2022/08/12 05:27:52;;;;;;;6.20;5.60;;;;;;;19.96;76.17;94973.22;5095676;28;20211;-71
2022/08/12 05:30:21;;;;;;;5.90;5.40;;;;;;;19.93;75.40;94979.66;5095861;28;20211;-70
2022/08/12 05:32:48;;;;;;;5.80;5.25;;;;;;;19.92;75.94;94976.06;5096259;28;20214;-71
2022/08/12 05:35:16;;;;;;;6.50;5.90;;;;;;;19.94;76.13;94981.25;5096228;28;20206;-71
2022/08/12 05:37:45;;;;;;;6.10;5.60;;;;;;;19.97;76.34;94988.81;5095340;28;20219;-70
2022/08/12 05:40:13;;;;;;;6.47;5.97;;;;;;;19.99;76.06;94988.41;5096548;28;20183;-71
2022/08/12 05:42:42;;;;;;;6.32;5.82;;;;;;;19.96;75.35;94993.59;5096776;28;20252;-72
2022/08/12 05:45:11;;;;;;;6.07;5.68;;;;;;;19.95;75.14;94992.03;5098564;28;20227;-73
2022/08/12 05:47:40;;;;;;;6.38;5.80;;;;;;;19.97;75.65;94997.19;5096776;28;20274;-72
2022/08/12 05:50:09;;;;;;;7.10;6.40;;;;;;;19.97;75.94;95002.78;5096377;28;20192;-72
2022/08/12 05:52:37;;;;;;;6.72;6.20;;;;;;;19.96;76.62;95002.00;5095604;28;20223;-72
2022/08/12 05:55:05;;;;;;;8.15;7.40;;;;;;;19.99;77.03;95000.38;5096015;28;20261;-72
2022/08/12 05:57:33;;;;;;;7.13;6.50;;;;;;;20.00;76.18;95001.97;5097578;28;20198;-71
2022/08/12 06:00:02;;;;;;;7.18;6.57;;;;;;;20.00;76.21;94999.19;5097765;28;20217;-74
2022/08/12 06:02:31;;;;;;;6.97;6.38;;;;;;;20.01;76.26;94995.19;5098587;28;20190;-74
2022/08/12 06:05:02;;;;;;;7.40;6.90;;;;;;;20.04;76.31;94991.53;5097918;28;20622;-74
2022/08/12 06:07:33;;;;;;;8.40;7.50;;;;;;;20.08;76.45;94988.69;5098080;28;20204;-73
2022/08/12 06:10:04;;;;;;;7.53;6.93;;;;;;;20.11;76.52;94990.66;5095631;28;20282;-72
2022/08/12 06:12:31;;;;;;;7.97;7.28;;;;;;;20.14;75.86;94998.22;5095966;28;20204;-72
2022/08/12 06:14:59;;;;;;;29.73;27.48;;;;;;;20.17;75.29;95000.22;5095391;28;20204;-72
2022/08/12 06:17:27;;;;;;;21.38;19.65;;;;;;;20.19;75.47;95003.41;5096459;28;20187;-74
2022/08/12 06:19:56;;;;;;;20.67;19.02;;;;;;;20.23;76.00;95004.16;5096653;28;20188;-74
2022/08/12 06:22:26;;;;;;;19.20;17.50;;;;;;;20.24;76.17;94997.31;5096001;28;20191;-72
2022/08/12 06:24:55;;;;;;;12.38;11.35;;;;;;;20.27;76.06;95001.31;5095727;28;20254;-72
2022/08/12 06:27:23;;;;;;;10.27;9.38;;;;;;;20.28;76.48;94995.28;5095671;28;20192;-72
2022/08/12 06:29:51;;;;;;;8.95;8.25;;;;;;;20.32;77.00;95003.63;5096051;28;20741;-73
2022/08/12 06:32:20;;;;;;;9.00;8.25;;;;;;;20.31;77.65;94994.44;5097028;28;20188;-73
2022/08/12 06:34:48;;;;;;;9.48;8.70;;;;;;;20.35;77.66;94998.00;5094848;28;20531;-72
2022/08/12 06:37:17;;;;;;;9.27;8.50;;;;;;;20.41;77.37;94998.34;5095239;28;20600;-73
2022/08/12 06:39:48;;;;;;;10.90;9.95;;;;;;;20.47;77.40;94999.44;5094899;28;20200;-74
2022/08/12 06:45:02;;;;;;;14.95;13.65;;;;;;;20.57;76.24;94997.78;5096779;28;20304;-72
2022/08/12 06:47:31;;;;;;;14.52;13.15;;;;;;;20.59;75.82;94989.75;5096705;28;20196;-73
2022/08/12 06:50:02;;;;;;;15.75;14.25;;;;;;;20.64;76.23;94989.28;5095220;28;20218;-71
2022/08/12 06:52:31;;;;;;;15.43;14.13;;;;;;;20.65;76.88;94994.44;5097284;28;20194;-72
2022/08/12 06:55:00;;;;;;;11.98;10.88;;;;;;;20.65;76.08;94990.84;5094646;28;20196;-73
2022/08/12 06:57:29;;;;;;;11.63;10.45;;;;;;;20.70;75.23;94990.41;5095147;28;20188;-73
2022/08/12 06:59:58;;;;;;;9.07;8.25;;;;;;;20.75;74.97;94989.94;5095216;28;20643;-74
2022/08/12 07:02:29;;;;;;;8.82;8.02;;;;;;;20.79;74.58;94981.47;5098143;28;20200;-73
2022/08/12 07:04:58;;;;;;;6.40;5.78;;;;;;;20.79;72.97;94979.47;5098983;28;20192;-74
2022/08/12 07:07:26;;;;;;;6.07;5.47;;;;;;;20.80;72.06;94983.84;5099966;28;20203;-74
2022/08/12 07:09:55;;;;;;;6.95;6.35;;;;;;;20.86;72.87;94981.38;5098197;28;20200;-72
2022/08/12 07:12:26;;;;;;;7.07;6.57;;;;;;;20.89;73.27;94972.91;5098981;28;20208;-72
2022/08/12 07:14:55;;;;;;;7.78;7.07;;;;;;;20.98;72.77;94975.19;5098996;28;20184;-72
2022/08/12 07:17:23;;;;;;;7.03;6.32;;;;;;;21.05;71.88;94979.91;5099877;28;20660;-74
2022/08/12 07:19:54;;;;;;;6.53;5.93;;;;;;;21.11;71.88;94984.63;5098623;28;20211;-73
2022/08/12 07:22:22;;;;;;;6.28;5.78;;;;;;;21.19;70.96;94984.50;5099146;28;20191;-73
2022/08/12 07:25:29;;;;;;;7.15;6.07;;;;;;;21.26;69.96;94981.59;5097632;28;20200;-73
2022/08/12 07:27:44;;;;;;;6.05;5.47;;;;;;;21.31;69.42;94981.09;5098518;28;20200;-73
2022/08/12 07:30:13;;;;;;;5.97;5.53;;;;;;;21.36;68.87;94975.06;5098442;28;20196;-72
2022/08/12 07:32:50;;;;;;;6.45;5.95;;;;;;;21.36;68.78;94970.22;5098621;28;20189;-73
2022/08/12 07:35:22;;;;;;;7.20;6.50;;;;;;;21.44;68.65;94972.91;5098542;28;20180;-73
2022/08/12 07:37:52;;;;;;;6.47;5.88;;;;;;;21.52;67.30;94961.16;5097232;28;20202;-73
2022/08/12 07:40:20;;;;;;;6.82;6.18;;;;;;;21.54;67.39;94964.34;5098430;28;20180;-73
2022/08/12 07:42:53;;;;;;;8.25;5.85;;;;;;;21.65;66.97;94969.75;5098325;28;20270;-73
2022/08/12 07:45:24;;;;;;;6.40;5.78;;;;;;;21.74;67.28;94955.16;5098084;28;20204;-71
2022/08/12 07:47:51;;;;;;;7.65;7.05;;;;;;;21.83;66.73;94959.00;5097779;28;20617;-72
2022/08/12 07:50:22;;;;;;;5.85;5.35;;;;;;;21.92;65.67;94961.25;5098478;28;20191;-72
2022/08/12 07:52:53;;;;;;;5.38;4.88;;;;;;;21.99;64.56;94963.13;5097348;28;20211;-71
2022/08/12 07:55:20;;;;;;;6.38;5.57;;;;;;;22.06;64.17;94960.97;5097737;28;20192;-72
2022/08/12 07:57:58;;;;;;;7.05;5.15;;;;;;;22.15;63.40;94954.03;5096871;28;20200;-70
2022/08/12 08:00:28;;;;;;;5.28;4.63;;;;;;;22.26;62.52;94958.25;5097682;28;20180;-71
2022/08/12 08:02:57;;;;;;;5.82;5.32;;;;;;;22.30;61.90;94958.16;5097144;28;20631;-72
2022/08/12 08:05:28;;;;;;;5.10;4.70;;;;;;;22.27;62.29;94954.19;5097272;28;20245;-72
2022/08/12 08:08:01;;;;;;;5.65;5.15;;;;;;;22.30;62.77;94958.16;5096974;28;20196;-72
2022/08/12 08:10:30;;;;;;;4.80;4.40;;;;;;;22.28;62.07;94958.59;5098223;28;20195;-71
2022/08/12 08:13:03;;;;;;;4.75;4.35;;;;;;;22.28;61.52;94957.78;5096750;28;20191;-72
2022/08/12 08:15:33;;;;;;;5.55;4.60;;;;;;;22.37;60.60;94949.59;5098037;28;20215;-72
2022/08/12 08:18:06;;;;;;;5.05;4.63;;;;;;;22.44;59.66;94948.63;5098901;28;20601;-72
2022/08/12 08:20:38;;;;;;;4.75;4.20;;;;;;;22.46;59.47;94943.38;5097712;28;20200;-72
2022/08/12 08:23:09;;;;;;;4.55;4.15;;;;;;;22.45;59.49;94945.41;5098324;28;20196;-73
2022/08/12 08:25:38;;;;;;;4.45;4.15;;;;;;;22.46;58.92;94952.59;5099465;28;20220;-72
2022/08/12 08:28:10;;;;;;;6.00;4.90;;;;;;;22.46;59.02;94943.38;5098773;28;20216;-73
2022/08/12 08:30:41;;;;;;;5.15;4.13;;;;;;;22.52;58.44;94939.63;5097469;28;20195;-72
2022/08/12 08:33:11;;;;;;;4.15;3.85;;;;;;;22.56;58.21;94939.56;5097904;28;20188;-73
2022/08/12 08:35:40;;;;;;;4.30;3.90;;;;;;;22.63;58.14;94935.81;5096751;28;20192;-72
2022/08/12 08:38:10;;;;;;;4.93;3.80;;;;;;;22.74;57.53;94939.97;5096682;28;20636;-72
2022/08/12 08:43:32;;;;;;;4.10;3.80;;;;;;;22.93;56.55;94931.97;5096436;28;20188;-72
2022/08/12 08:46:04;;;;;;;4.30;4.00;;;;;;;23.02;56.00;94924.50;5096375;28;20211;-72
2022/08/12 08:48:33;;;;;;;4.60;3.88;;;;;;;23.05;56.16;94928.44;5097190;28;20271;-72
2022/08/12 08:51:04;;;;;;;3.92;3.63;;;;;;;23.09;56.42;94931.19;5097436;28;20235;-73
2022/08/12 08:53:33;;;;;;;6.05;4.43;;;;;;;23.16;56.02;94931.00;5097979;28;20518;-73
2022/08/12 08:56:01;;;;;;;3.95;3.65;;;;;;;23.20;56.39;94929.72;5096575;28;20202;-72
2022/08/12 08:58:29;;;;;;;4.38;3.97;;;;;;;23.33;55.04;94926.97;5096639;28;20208;-72
2022/08/12 09:00:59;;;;;;;5.85;4.38;;;;;;;23.46;55.30;94927.88;5095766;28;20192;-73
2022/08/12 09:03:28;;;;;;;4.70;4.07;;;;;;;23.59;55.07;94927.94;5079668;28;20196;-73
2022/08/12 09:05:56;;;;;;;4.30;4.00;;;;;;;23.71;54.50;94921.63;5095914;28;20224;-73
2022/08/12 09:08:24;;;;;;;4.60;4.20;;;;;;;23.78;55.07;94917.81;5096179;28;20196;-73
2022/08/12 09:13:26;;;;;;;4.78;4.35;;;;;;;23.87;54.13;94920.81;5095619;28;20207;-73
2022/08/12 09:13:47;;;;;;;5.05;4.63;;;;;;;23.96;53.47;94908.91;5095806;28;20233;-73
2022/08/12 09:16:17;;;;;;;4.30;3.95;;;;;;;24.01;52.72;94911.19;5095695;28;20604;-73
2022/08/12 09:18:47;;;;;;;7.20;3.80;;;;;;;24.13;51.45;94920.91;5096808;28;20196;-74
2022/08/12 09:21:14;;;;;;;4.78;4.15;;;;;;;24.20;50.86;94910.25;5095626;28;20285;-74
2022/08/12 09:23:42;;;;;;;4.80;4.28;;;;;;;24.24;50.14;94918.59;5094877;28;20200;-74
2022/08/12 09:26:11;;;;;;;4.25;3.85;;;;;;;24.30;50.72;94919.63;5096057;28;20208;-74
2022/08/12 09:28:39;;;;;;;4.85;4.20;;;;;;;24.34;50.23;94913.91;5096327;28;20196;-74
2022/08/12 09:31:08;;;;;;;5.10;4.60;;;;;;;24.25;49.89;94918.13;5096340;28;20201;-74
2022/08/12 09:33:36;;;;;;;4.40;4.00;;;;;;;24.16;49.94;94911.59;5096255;28;20611;-74
2022/08/12 09:36:04;;;;;;;4.40;4.00;;;;;;;24.13;50.43;94910.44;5095592;28;20200;-74
2022/08/12 09:38:32;;;;;;;4.10;3.80;;;;;;;24.19;49.73;94908.66;5095551;28;20269;-74
2022/08/12 09:41:01;;;;;;;3.75;3.42;;;;;;;24.26;49.70;94916.13;5095810;28;20287;-74
2022/08/12 09:46:17;;;;;;;42.75;39.05;;;;;;;24.18;50.01;94912.72;5094798;28;20658;-74
2022/08/12 09:48:45;;;;;;;22.95;21.00;;;;;;;24.14;50.35;94905.59;5095709;28;20181;-74
2022/08/12 09:51:13;;;;;;;31.92;29.02;;;;;;;24.24;50.30;94908.09;5095927;28;20200;-74
2022/08/12 09:53:42;;;;;;;12.80;11.60;;;;;;;24.43;50.41;94900.75;5095037;28;20200;-74
2022/08/12 09:56:12;;;;;;;20.35;18.58;;;;;;;24.49;49.71;94909.44;5095519;28;20201;-74
2022/08/12 09:58:40;;;;;;;9.75;8.95;;;;;;;24.56;49.46;94906.44;5095395;28;20198;-73
2022/08/12 10:01:08;;;;;;;7.68;7.05;;;;;;;24.67;48.68;94900.47;5095566;28;20188;-73
2022/08/12 10:03:42;;;;;;;4.85;4.45;;;;;;;24.83;48.29;94899.56;5094489;28;20204;-73
2022/08/12 10:06:11;;;;;;;6.50;6.00;;;;;;;24.77;48.09;94896.53;5094976;28;20217;-73
2022/08/12 10:08:38;;;;;;;4.72;4.38;;;;;;;24.71;47.78;94892.69;5095627;28;20204;-73
2022/08/12 10:13:55;;;;;;;4.53;4.22;;;;;;;24.62;47.14;94892.53;5096165;28;20212;-70
2022/08/12 10:16:32;;;;;;;4.63;4.32;;;;;;;24.62;47.98;94889.72;5097121;28;20202;-70
2022/08/12 10:19:04;;;;;;;5.20;4.70;;;;;;;24.64;48.63;94888.03;5097296;28;20618;-70
2022/08/12 10:21:35;;;;;;;4.72;4.32;;;;;;;24.62;47.91;94884.09;5097135;28;20196;-71
2022/08/12 10:24:07;;;;;;;4.55;4.25;;;;;;;24.59;47.76;94885.78;5097309;28;20592;-71
2022/08/12 10:29:43;;;;;;;4.20;3.90;;;;;;;24.48;48.17;94874.06;5096355;28;20222;-72
2022/08/12 10:32:15;;;;;;;4.18;3.88;;;;;;;24.44;49.07;94874.16;5096475;28;20196;-72
2022/08/12 10:34:47;;;;;;;4.20;3.80;;;;;;;24.41;48.98;94874.25;5097771;28;20245;-72
2022/08/12 10:37:15;;;;;;;3.85;3.60;;;;;;;24.36;48.83;94874.75;5099153;28;20204;-72
2022/08/12 10:39:47;;;;;;;4.00;3.70;;;;;;;24.31;49.04;94880.97;5100377;28;20215;-72
2022/08/12 10:45:05;;;;;;;4.63;3.95;;;;;;;24.17;48.31;94873.72;5101740;28;20184;-71
2022/08/12 10:47:35;;;;;;;4.20;3.90;;;;;;;24.11;48.79;94872.66;5083601;28;20290;-71
2022/08/12 10:50:08;;;;;;;5.95;4.22;;;;;;;24.06;49.36;94864.78;5101107;28;20202;-71
2022/08/12 10:52:37;;;;;;;4.03;3.55;;;;;;;24.06;49.39;94870.41;5101987;28;20264;-71
2022/08/12 10:55:08;;;;;;;4.30;4.00;;;;;;;24.04;49.98;94859.59;5103047;28;20230;-72
2022/08/12 10:57:36;;;;;;;4.60;4.28;;;;;;;24.05;49.85;94864.00;5100586;28;20180;-71
2022/08/12 11:00:07;;;;;;;4.55;4.25;;;;;;;24.05;48.62;94858.34;5101204;28;20196;-71
2022/08/12 11:02:35;;;;;;;3.85;3.55;;;;;;;24.03;48.69;94860.81;5100561;28;20200;-71
2022/08/12 11:05:06;;;;;;;4.88;4.38;;;;;;;24.06;49.36;94856.31;5101936;28;20208;-71
2022/08/12 11:07:37;;;;;;;5.22;4.80;;;;;;;24.09;49.52;94850.59;5100762;28;20236;-71
2022/08/12 11:10:06;;;;;;;4.43;4.00;;;;;;;24.19;49.86;94848.72;5099281;28;20559;-73
2022/08/12 11:12:40;;;;;;;4.03;3.72;;;;;;;24.30;49.18;94849.19;5100545;28;20203;-73
2022/08/12 11:15:12;;;;;;;4.72;4.32;;;;;;;24.48;49.13;94841.00;5098791;28;20198;-73
2022/08/12 11:17:40;;;;;;;4.20;3.90;;;;;;;24.59;48.56;94839.91;5098644;28;20506;-73
2022/08/12 11:20:11;;;;;;;4.40;4.10;;;;;;;24.76;48.46;94840.56;5098853;28;20580;-73
2022/08/12 11:22:39;;;;;;;4.30;4.00;;;;;;;24.93;48.29;94844.84;5098175;28;20184;-73
2022/08/12 11:25:09;;;;;;;4.32;3.97;;;;;;;24.93;48.11;94831.53;5097768;28;20200;-73
2022/08/12 11:27:39;;;;;;;4.22;3.83;;;;;;;24.89;47.82;94830.88;5097825;28;20247;-73
2022/08/12 11:30:09;;;;;;;4.13;3.83;;;;;;;24.86;47.61;94837.41;5098957;28;20230;-73
2022/08/12 11:32:37;;;;;;;4.32;4.03;;;;;;;24.86;47.76;94837.41;5097589;28;20200;-73
2022/08/12 11:35:06;;;;;;;5.53;4.47;;;;;;;24.86;48.22;94826.13;5099183;28;20192;-73
2022/08/12 11:37:37;;;;;;;4.70;4.40;;;;;;;24.89;47.82;94827.25;5097827;28;20196;-73
2022/08/12 11:40:07;;;;;;;4.80;4.40;;;;;;;24.94;46.38;94824.66;5099094;28;20254;-73
2022/08/12 11:42:35;;;;;;;4.50;4.20;;;;;;;24.94;47.21;94826.69;5097413;28;20339;-73
2022/08/12 11:45:06;;;;;;;4.45;4.15;;;;;;;24.93;47.50;94822.28;5098898;28;20213;-72
2022/08/12 11:47:34;;;;;;;4.30;4.00;;;;;;;24.90;47.54;94828.84;5096888;28;20227;-71
2022/08/12 11:50:02;;;;;;;5.22;4.82;;;;;;;24.83;46.78;94829.06;5098204;28;20216;-71
2022/08/12 11:52:31;;;;;;;4.97;4.50;;;;;;;24.74;47.03;94827.72;5097780;28;20207;-71
2022/08/12 11:55:01;;;;;;;4.47;4.18;;;;;;;24.68;46.75;94823.88;5097225;28;20197;-70
2022/08/12 11:57:29;;;;;;;4.60;4.30;;;;;;;24.62;47.02;94820.06;5097054;28;20193;-70
2022/08/12 11:59:57;;;;;;;4.38;4.07;;;;;;;24.57;46.85;94820.59;5097947;28;20267;-70
2022/08/12 12:02:25;;;;;;;4.72;4.43;;;;;;;24.50;46.46;94815.97;5097311;28;20192;-70
2022/08/12 12:04:52;;;;;;;4.60;4.10;;;;;;;24.48;46.60;94812.03;5096786;28;20200;-70
2022/08/12 12:07:22;;;;;;;4.43;4.13;;;;;;;24.48;47.13;94804.38;5097548;28;20204;-70
2022/08/12 12:09:50;;;;;;;4.50;4.20;;;;;;;24.49;47.04;94813.59;5097700;28;20261;-71
2022/08/12 12:12:20;;;;;;;4.43;4.03;;;;;;;24.50;46.63;94812.34;5097671;28;20185;-70
2022/08/12 12:14:48;;;;;;;4.82;4.38;;;;;;;24.51;47.00;94813.97;5097735;28;20191;-71
2022/08/12 12:17:16;;;;;;;4.68;4.38;;;;;;;24.54;47.57;94812.25;5098130;28;20619;-72
2022/08/12 12:19:46;;;;;;;4.60;4.30;;;;;;;24.58;47.47;94808.06;5097181;28;20207;-71
2022/08/12 12:22:14;;;;;;;4.30;4.00;;;;;;;24.70;47.39;94812.94;5097959;28;20199;-71
2022/08/12 12:24:45;;;;;;;4.05;3.80;;;;;;;24.79;46.83;94806.63;5098122;28;20185;-71
2022/08/12 12:27:13;;;;;;;3.88;3.58;;;;;;;24.91;46.68;94799.38;5097785;28;20216;-71
2022/08/12 12:29:43;;;;;;;4.57;4.13;;;;;;;24.98;46.09;94793.50;5097772;28;20199;-71
2022/08/12 12:32:11;;;;;;;3.97;3.67;;;;;;;24.96;45.64;94799.59;5098054;28;20211;-72
2022/08/12 12:34:40;;;;;;;4.20;3.80;;;;;;;24.89;44.87;94802.66;5097674;28;20210;-71
2022/08/12 12:37:11;;;;;;;4.03;3.72;;;;;;;24.83;45.09;94789.56;5097274;28;20196;-72
2022/08/12 12:39:39;;;;;;;3.75;3.45;;;;;;;24.78;45.27;94793.75;5097271;28;20185;-70
2022/08/12 12:42:07;;;;;;;4.30;4.00;;;;;;;24.72;45.04;94793.53;5095682;28;20239;-70
2022/08/12 12:44:35;;;;;;;4.28;3.80;;;;;;;24.71;46.28;94789.13;5096961;28;20176;-70
2022/08/12 12:47:05;;;;;;;5.05;4.68;;;;;;;24.70;46.04;94781.94;5095848;28;20216;-69
2022/08/12 12:49:34;;;;;;;5.03;4.70;;;;;;;24.68;45.89;94777.97;5096081;28;20203;-69
2022/08/12 12:52:03;;;;;;;4.40;4.10;;;;;;;24.65;45.92;94770.41;5096895;28;20589;-70
2022/08/12 12:54:31;;;;;;;4.78;4.38;;;;;;;24.64;46.08;94768.84;5093577;28;20200;-70
2022/08/12 12:57:02;;;;;;;5.03;4.57;;;;;;;24.64;46.30;94766.81;5096763;28;20185;-69
2022/08/12 12:59:31;;;;;;;4.90;4.50;;;;;;;24.66;46.27;94758.69;5095281;28;20200;-71
2022/08/12 13:02:05;;;;;;;4.82;4.30;;;;;;;24.72;45.98;94761.72;5096720;28;20192;-71
2022/08/12 13:04:36;;;;;;;4.57;4.28;;;;;;;24.91;46.72;94757.06;5096084;28;20312;-70
2022/08/12 13:07:07;;;;;;;4.28;3.97;;;;;;;25.14;46.67;94744.66;5095713;28;20216;-72
2022/08/12 13:09:35;;;;;;;4.38;4.07;;;;;;;25.30;46.55;94747.28;5095299;28;20578;-72
2022/08/12 13:12:07;;;;;;;6.05;4.53;;;;;;;25.48;45.90;94748.69;5096356;28;20195;-72
2022/08/12 13:14:37;;;;;;;4.38;3.97;;;;;;;25.60;45.20;94751.47;5095968;28;20200;-73
2022/08/12 13:17:08;;;;;;;4.40;4.10;;;;;;;25.67;43.76;94751.22;5095515;28;20192;-72
2022/08/12 13:19:37;;;;;;;4.80;4.10;;;;;;;25.71;44.29;94745.44;5096215;28;20226;-73
2022/08/12 13:22:22;;;;;;;4.43;4.13;;;;;;;25.76;43.74;94744.84;5095903;28;20200;-70
2022/08/12 13:24:56;;;;;;;4.70;4.30;;;;;;;25.82;43.88;94743.03;5096979;28;20202;-71